Terminal Aerodrome Forecast
Issued by NWS

Home | Current Version | Previous Version | Text Only | Print | Product List | Glossary On
Versions: 1 2 3 4 5 6 7 8 9 10 11 12 13 14 15 16 17 18 19 20 21 22 23
000
FTUS41 KPBZ 262000 AAC
TAFAGC
TAF AMD
KAGC 262001Z 2620/2718 34010KT P6SM -SHRA SCT008 OVC012
      TEMPO 2620/2622 BKN008
     FM270300 33008KT P6SM BKN015
     FM271500 32006KT P6SM -SHRASN BKN025=

USA.gov is the U.S. government's official web portal to all federal, state and local government web resources and services.